sensor_id;sensor_type;location;lat;lon;timestamp;temperature;humidity
22430;DHT22;11382;48.086;11.632;2023-04-07T00:00:05;3.80;99.90
22430;DHT22;11382;48.086;11.632;2023-04-07T00:02:41;3.70;99.90
22430;DHT22;11382;48.086;11.632;2023-04-07T00:05:10;3.60;99.90
22430;DHT22;11382;48.086;11.632;2023-04-07T00:07:38;3.60;99.90
22430;DHT22;11382;48.086;11.632;2023-04-07T00:10:21;3.60;99.90
22430;DHT22;11382;48.086;11.632;2023-04-07T00:12:49;3.70;99.90
22430;DHT22;11382;48.086;11.632;2023-04-07T00:15:17;3.60;99.90
22430;DHT22;11382;48.086;11.632;2023-04-07T00:17:46;3.70;99.90
22430;DHT22;11382;48.086;11.632;2023-04-07T00:20:15;3.70;99.90
22430;DHT22;11382;48.086;11.632;2023-04-07T00:22:43;3.70;99.90
22430;DHT22;11382;48.086;11.632;2023-04-07T00:25:11;3.50;99.90
22430;DHT22;11382;48.086;11.632;2023-04-07T00:27:39;3.10;99.90
22430;DHT22;11382;48.086;11.632;2023-04-07T00:30:07;3.10;99.90
22430;DHT22;11382;48.086;11.632;2023-04-07T00:32:35;3.10;99.90
22430;DHT22;11382;48.086;11.632;2023-04-07T00:35:06;3.10;99.90
22430;DHT22;11382;48.086;11.632;2023-04-07T00:37:34;3.10;99.90
22430;DHT22;11382;48.086;11.632;2023-04-07T00:40:02;3.20;99.90
22430;DHT22;11382;48.086;11.632;2023-04-07T00:42:32;3.20;99.90
22430;DHT22;11382;48.086;11.632;2023-04-07T00:45:00;3.30;99.90
22430;DHT22;11382;48.086;11.632;2023-04-07T00:47:28;3.30;99.90
22430;DHT22;11382;48.086;11.632;2023-04-07T00:49:56;3.40;99.90
22430;DHT22;11382;48.086;11.632;2023-04-07T00:52:26;3.40;99.90
22430;DHT22;11382;48.086;11.632;2023-04-07T00:54:55;3.50;99.90
22430;DHT22;11382;48.086;11.632;2023-04-07T00:57:24;3.70;99.90
22430;DHT22;11382;48.086;11.632;2023-04-07T00:59:53;3.80;99.90
22430;DHT22;11382;48.086;11.632;2023-04-07T01:02:27;3.80;99.90
22430;DHT22;11382;48.086;11.632;2023-04-07T01:05:04;3.90;99.90
22430;DHT22;11382;48.086;11.632;2023-04-07T01:07:42;3.80;99.90
22430;DHT22;11382;48.086;11.632;2023-04-07T01:10:13;3.90;99.90
22430;DHT22;11382;48.086;11.632;2023-04-07T01:13:00;4.00;99.90
22430;DHT22;11382;48.086;11.632;2023-04-07T01:15:33;4.00;99.90
22430;DHT22;11382;48.086;11.632;2023-04-07T01:18:08;4.00;99.90
22430;DHT22;11382;48.086;11.632;2023-04-07T01:20:37;4.10;99.90
22430;DHT22;11382;48.086;11.632;2023-04-07T01:23:08;4.10;99.90
22430;DHT22;11382;48.086;11.632;2023-04-07T01:26:03;4.10;99.90
22430;DHT22;11382;48.086;11.632;2023-04-07T01:29:10;4.10;99.90
22430;DHT22;11382;48.086;11.632;2023-04-07T01:31:42;4.10;99.90
22430;DHT22;11382;48.086;11.632;2023-04-07T01:34:11;4.00;99.90
22430;DHT22;11382;48.086;11.632;2023-04-07T01:36:40;4.10;99.90
22430;DHT22;11382;48.086;11.632;2023-04-07T01:39:09;4.10;99.90
22430;DHT22;11382;48.086;11.632;2023-04-07T01:41:38;4.20;99.90
22430;DHT22;11382;48.086;11.632;2023-04-07T01:44:08;4.20;99.90
22430;DHT22;11382;48.086;11.632;2023-04-07T01:46:37;4.20;99.90
22430;DHT22;11382;48.086;11.632;2023-04-07T01:49:07;4.20;99.90
22430;DHT22;11382;48.086;11.632;2023-04-07T01:51:35;4.10;99.90
22430;DHT22;11382;48.086;11.632;2023-04-07T01:54:04;4.20;99.90
22430;DHT22;11382;48.086;11.632;2023-04-07T01:56:34;4.20;99.90
22430;DHT22;11382;48.086;11.632;2023-04-07T01:59:04;4.20;99.90
22430;DHT22;11382;48.086;11.632;2023-04-07T02:01:33;4.10;99.90
22430;DHT22;11382;48.086;11.632;2023-04-07T02:04:10;4.20;99.90
22430;DHT22;11382;48.086;11.632;2023-04-07T02:06:43;4.20;99.90
22430;DHT22;11382;48.086;11.632;2023-04-07T02:09:19;4.20;99.90
22430;DHT22;11382;48.086;11.632;2023-04-07T02:11:49;4.20;99.90
22430;DHT22;11382;48.086;11.632;2023-04-07T02:14:19;4.20;99.90
22430;DHT22;11382;48.086;11.632;2023-04-07T02:17:03;4.30;99.90
22430;DHT22;11382;48.086;11.632;2023-04-07T02:19:32;4.30;99.90
22430;DHT22;11382;48.086;11.632;2023-04-07T02:22:02;4.30;99.90
22430;DHT22;11382;48.086;11.632;2023-04-07T02:24:30;4.20;99.90
22430;DHT22;11382;48.086;11.632;2023-04-07T02:26:58;4.20;99.90
22430;DHT22;11382;48.086;11.632;2023-04-07T02:29:27;4.30;99.90
22430;DHT22;11382;48.086;11.632;2023-04-07T02:31:55;4.40;99.90
22430;DHT22;11382;48.086;11.632;2023-04-07T02:34:24;4.50;99.90
22430;DHT22;11382;48.086;11.632;2023-04-07T02:36:53;4.70;99.90
22430;DHT22;11382;48.086;11.632;2023-04-07T02:39:21;4.80;99.90
22430;DHT22;11382;48.086;11.632;2023-04-07T02:41:49;4.80;99.90
22430;DHT22;11382;48.086;11.632;2023-04-07T02:44:17;4.90;99.90
22430;DHT22;11382;48.086;11.632;2023-04-07T02:46:45;4.90;99.90
22430;DHT22;11382;48.086;11.632;2023-04-07T02:49:13;5.00;99.90
22430;DHT22;11382;48.086;11.632;2023-04-07T02:51:41;5.00;99.90
22430;DHT22;11382;48.086;11.632;2023-04-07T02:54:10;5.10;99.90
22430;DHT22;11382;48.086;11.632;2023-04-07T02:56:38;5.10;99.90
22430;DHT22;11382;48.086;11.632;2023-04-07T02:59:06;5.10;99.90
22430;DHT22;11382;48.086;11.632;2023-04-07T03:01:39;5.20;99.90
22430;DHT22;11382;48.086;11.632;2023-04-07T03:04:08;5.30;99.90
22430;DHT22;11382;48.086;11.632;2023-04-07T03:06:36;5.20;99.90
22430;DHT22;11382;48.086;11.632;2023-04-07T03:09:10;5.20;99.90
22430;DHT22;11382;48.086;11.632;2023-04-07T03:11:39;5.30;99.90
22430;DHT22;11382;48.086;11.632;2023-04-07T03:14:07;5.30;99.90
22430;DHT22;11382;48.086;11.632;2023-04-07T03:16:43;5.20;99.90
22430;DHT22;11382;48.086;11.632;2023-04-07T03:19:13;5.20;99.90
22430;DHT22;11382;48.086;11.632;2023-04-07T03:21:45;5.20;99.90
22430;DHT22;11382;48.086;11.632;2023-04-07T03:24:14;5.20;99.90
22430;DHT22;11382;48.086;11.632;2023-04-07T03:26:44;5.30;99.90
22430;DHT22;11382;48.086;11.632;2023-04-07T03:29:19;5.30;99.90
22430;DHT22;11382;48.086;11.632;2023-04-07T03:31:47;5.30;99.90
22430;DHT22;11382;48.086;11.632;2023-04-07T03:34:19;5.30;99.90
22430;DHT22;11382;48.086;11.632;2023-04-07T03:36:47;5.30;99.90
22430;DHT22;11382;48.086;11.632;2023-04-07T03:39:17;5.20;99.90
22430;DHT22;11382;48.086;11.632;2023-04-07T03:41:45;5.20;99.90
22430;DHT22;11382;48.086;11.632;2023-04-07T03:44:13;5.10;99.90
22430;DHT22;11382;48.086;11.632;2023-04-07T03:46:41;5.10;99.90
22430;DHT22;11382;48.086;11.632;2023-04-07T03:49:11;5.10;99.90
22430;DHT22;11382;48.086;11.632;2023-04-07T03:51:39;5.20;99.90
22430;DHT22;11382;48.086;11.632;2023-04-07T03:54:13;5.20;99.90
22430;DHT22;11382;48.086;11.632;2023-04-07T03:56:44;5.10;99.90
22430;DHT22;11382;48.086;11.632;2023-04-07T03:59:16;5.10;99.90
22430;DHT22;11382;48.086;11.632;2023-04-07T04:01:52;5.10;99.90
22430;DHT22;11382;48.086;11.632;2023-04-07T04:04:20;5.10;99.90
22430;DHT22;11382;48.086;11.632;2023-04-07T04:06:50;5.10;99.90
22430;DHT22;11382;48.086;11.632;2023-04-07T04:09:32;5.10;99.90
22430;DHT22;11382;48.086;11.632;2023-04-07T04:12:03;5.20;99.90
22430;DHT22;11382;48.086;11.632;2023-04-07T04:14:33;5.20;99.90
22430;DHT22;11382;48.086;11.632;2023-04-07T04:17:03;5.20;99.90
22430;DHT22;11382;48.086;11.632;2023-04-07T04:19:39;5.10;99.90
22430;DHT22;11382;48.086;11.632;2023-04-07T04:22:16;5.10;99.90
22430;DHT22;11382;48.086;11.632;2023-04-07T04:24:50;5.10;99.90
22430;DHT22;11382;48.086;11.632;2023-04-07T04:27:21;5.00;99.90
22430;DHT22;11382;48.086;11.632;2023-04-07T04:29:55;5.10;99.90
22430;DHT22;11382;48.086;11.632;2023-04-07T04:32:40;5.10;99.90
22430;DHT22;11382;48.086;11.632;2023-04-07T04:35:09;5.00;99.90
22430;DHT22;11382;48.086;11.632;2023-04-07T04:37:46;5.00;99.90
22430;DHT22;11382;48.086;11.632;2023-04-07T04:40:14;4.90;99.90
22430;DHT22;11382;48.086;11.632;2023-04-07T04:42:47;4.90;99.90
22430;DHT22;11382;48.086;11.632;2023-04-07T04:45:17;5.00;99.90
22430;DHT22;11382;48.086;11.632;2023-04-07T04:47:47;5.00;99.90
22430;DHT22;11382;48.086;11.632;2023-04-07T04:50:16;4.90;99.90
22430;DHT22;11382;48.086;11.632;2023-04-07T04:52:45;5.00;99.90
22430;DHT22;11382;48.086;11.632;2023-04-07T04:55:20;5.00;99.90
22430;DHT22;11382;48.086;11.632;2023-04-07T04:57:51;5.10;99.90
22430;DHT22;11382;48.086;11.632;2023-04-07T05:00:27;5.10;99.90
22430;DHT22;11382;48.086;11.632;2023-04-07T05:03:00;5.10;99.90
22430;DHT22;11382;48.086;11.632;2023-04-07T05:05:33;5.10;99.90
22430;DHT22;11382;48.086;11.632;2023-04-07T05:08:02;5.10;99.90
22430;DHT22;11382;48.086;11.632;2023-04-07T05:10:37;5.10;99.90
22430;DHT22;11382;48.086;11.632;2023-04-07T05:13:12;5.10;99.90
22430;DHT22;11382;48.086;11.632;2023-04-07T05:15:40;5.20;99.90
22430;DHT22;11382;48.086;11.632;2023-04-07T05:18:10;5.20;99.90
22430;DHT22;11382;48.086;11.632;2023-04-07T05:20:39;5.20;99.90
22430;DHT22;11382;48.086;11.632;2023-04-07T05:23:08;5.20;99.90
22430;DHT22;11382;48.086;11.632;2023-04-07T05:25:36;5.10;99.90
22430;DHT22;11382;48.086;11.632;2023-04-07T05:28:05;5.10;99.90
22430;DHT22;11382;48.086;11.632;2023-04-07T05:30:35;5.30;99.90
22430;DHT22;11382;48.086;11.632;2023-04-07T05:33:03;5.20;99.90
22430;DHT22;11382;48.086;11.632;2023-04-07T05:35:40;5.00;99.90
22430;DHT22;11382;48.086;11.632;2023-04-07T05:38:08;4.90;99.90
22430;DHT22;11382;48.086;11.632;2023-04-07T05:40:38;4.80;99.90
22430;DHT22;11382;48.086;11.632;2023-04-07T05:43:09;4.80;99.90
22430;DHT22;11382;48.086;11.632;2023-04-07T05:45:39;4.80;99.90
22430;DHT22;11382;48.086;11.632;2023-04-07T05:48:07;4.90;99.90
22430;DHT22;11382;48.086;11.632;2023-04-07T05:50:42;4.90;99.90
22430;DHT22;11382;48.086;11.632;2023-04-07T05:53:14;5.00;99.90
22430;DHT22;11382;48.086;11.632;2023-04-07T05:55:42;5.10;99.90
22430;DHT22;11382;48.086;11.632;2023-04-07T05:58:18;5.20;99.90
22430;DHT22;11382;48.086;11.632;2023-04-07T06:00:51;5.30;99.90
22430;DHT22;11382;48.086;11.632;2023-04-07T06:03:19;5.40;99.90
22430;DHT22;11382;48.086;11.632;2023-04-07T06:06:04;5.40;99.90
22430;DHT22;11382;48.086;11.632;2023-04-07T06:08:33;5.50;99.90
22430;DHT22;11382;48.086;11.632;2023-04-07T06:11:02;5.50;99.90
22430;DHT22;11382;48.086;11.632;2023-04-07T06:13:29;5.50;99.90
22430;DHT22;11382;48.086;11.632;2023-04-07T06:15:59;5.50;99.90
22430;DHT22;11382;48.086;11.632;2023-04-07T06:18:27;5.60;99.90
22430;DHT22;11382;48.086;11.632;2023-04-07T06:20:55;5.80;99.90
22430;DHT22;11382;48.086;11.632;2023-04-07T06:23:24;5.70;99.90
22430;DHT22;11382;48.086;11.632;2023-04-07T06:25:52;5.80;99.90
22430;DHT22;11382;48.086;11.632;2023-04-07T06:28:21;5.80;99.90
22430;DHT22;11382;48.086;11.632;2023-04-07T06:30:49;6.00;99.90
22430;DHT22;11382;48.086;11.632;2023-04-07T06:33:20;6.10;99.90
22430;DHT22;11382;48.086;11.632;2023-04-07T06:35:51;6.10;99.90
22430;DHT22;11382;48.086;11.632;2023-04-07T06:38:19;6.00;99.90
22430;DHT22;11382;48.086;11.632;2023-04-07T06:40:47;6.00;99.90
22430;DHT22;11382;48.086;11.632;2023-04-07T06:43:15;6.20;99.90
22430;DHT22;11382;48.086;11.632;2023-04-07T06:45:50;6.20;99.90
22430;DHT22;11382;48.086;11.632;2023-04-07T06:48:19;6.20;99.90
22430;DHT22;11382;48.086;11.632;2023-04-07T06:50:48;6.40;99.90
22430;DHT22;11382;48.086;11.632;2023-04-07T06:53:16;6.50;99.90
22430;DHT22;11382;48.086;11.632;2023-04-07T06:55:44;6.50;99.90
22430;DHT22;11382;48.086;11.632;2023-04-07T06:58:12;6.60;99.90
22430;DHT22;11382;48.086;11.632;2023-04-07T07:00:40;6.40;99.90
22430;DHT22;11382;48.086;11.632;2023-04-07T07:03:08;6.30;99.90
22430;DHT22;11382;48.086;11.632;2023-04-07T07:05:38;6.30;99.90
22430;DHT22;11382;48.086;11.632;2023-04-07T07:08:06;6.40;99.90
22430;DHT22;11382;48.086;11.632;2023-04-07T07:10:34;6.70;99.90
22430;DHT22;11382;48.086;11.632;2023-04-07T07:13:02;6.90;99.90
22430;DHT22;11382;48.086;11.632;2023-04-07T07:15:29;7.30;99.90
22430;DHT22;11382;48.086;11.632;2023-04-07T07:17:58;7.30;99.90
22430;DHT22;11382;48.086;11.632;2023-04-07T07:20:26;7.50;99.90
22430;DHT22;11382;48.086;11.632;2023-04-07T07:22:55;7.80;99.90
22430;DHT22;11382;48.086;11.632;2023-04-07T07:25:24;8.30;99.90
22430;DHT22;11382;48.086;11.632;2023-04-07T07:27:52;8.50;99.90
22430;DHT22;11382;48.086;11.632;2023-04-07T07:30:21;9.00;99.90
22430;DHT22;11382;48.086;11.632;2023-04-07T07:32:50;9.00;99.90
22430;DHT22;11382;48.086;11.632;2023-04-07T07:35:19;9.10;99.90
22430;DHT22;11382;48.086;11.632;2023-04-07T07:37:47;8.90;99.90
22430;DHT22;11382;48.086;11.632;2023-04-07T07:40:17;8.80;99.90
22430;DHT22;11382;48.086;11.632;2023-04-07T07:42:46;8.70;99.90
22430;DHT22;11382;48.086;11.632;2023-04-07T07:45:14;8.80;99.90
22430;DHT22;11382;48.086;11.632;2023-04-07T07:47:45;9.40;99.90
22430;DHT22;11382;48.086;11.632;2023-04-07T07:50:13;9.80;99.90
22430;DHT22;11382;48.086;11.632;2023-04-07T07:52:41;9.60;99.90
22430;DHT22;11382;48.086;11.632;2023-04-07T07:55:09;9.40;99.90
22430;DHT22;11382;48.086;11.632;2023-04-07T07:57:38;9.40;99.90
22430;DHT22;11382;48.086;11.632;2023-04-07T08:00:07;9.50;99.90
22430;DHT22;11382;48.086;11.632;2023-04-07T08:02:40;9.40;99.90
22430;DHT22;11382;48.086;11.632;2023-04-07T08:05:09;9.20;99.90
22430;DHT22;11382;48.086;11.632;2023-04-07T08:07:37;9.50;99.90
22430;DHT22;11382;48.086;11.632;2023-04-07T08:10:05;9.60;99.90
22430;DHT22;11382;48.086;11.632;2023-04-07T08:12:34;9.60;99.90
22430;DHT22;11382;48.086;11.632;2023-04-07T08:15:04;9.80;99.90
22430;DHT22;11382;48.086;11.632;2023-04-07T08:17:33;10.10;99.90
22430;DHT22;11382;48.086;11.632;2023-04-07T08:20:01;9.90;99.90
22430;DHT22;11382;48.086;11.632;2023-04-07T08:22:29;10.10;99.90
22430;DHT22;11382;48.086;11.632;2023-04-07T08:24:57;10.20;99.90
22430;DHT22;11382;48.086;11.632;2023-04-07T08:27:26;10.50;99.90
22430;DHT22;11382;48.086;11.632;2023-04-07T08:29:58;10.90;99.90
22430;DHT22;11382;48.086;11.632;2023-04-07T08:32:34;11.40;99.90
22430;DHT22;11382;48.086;11.632;2023-04-07T08:35:03;11.40;99.90
22430;DHT22;11382;48.086;11.632;2023-04-07T08:37:32;11.30;99.90
22430;DHT22;11382;48.086;11.632;2023-04-07T08:40:01;11.80;99.90
22430;DHT22;11382;48.086;11.632;2023-04-07T08:42:30;12.10;99.90
22430;DHT22;11382;48.086;11.632;2023-04-07T08:45:02;12.20;99.90
22430;DHT22;11382;48.086;11.632;2023-04-07T08:47:32;12.10;99.90
22430;DHT22;11382;48.086;11.632;2023-04-07T08:50:03;12.80;99.90
22430;DHT22;11382;48.086;11.632;2023-04-07T08:52:34;13.00;99.90
22430;DHT22;11382;48.086;11.632;2023-04-07T08:55:06;13.00;99.90
22430;DHT22;11382;48.086;11.632;2023-04-07T08:57:35;13.80;99.90
22430;DHT22;11382;48.086;11.632;2023-04-07T09:00:04;14.00;99.50
22430;DHT22;11382;48.086;11.632;2023-04-07T09:02:33;14.50;98.80
22430;DHT22;11382;48.086;11.632;2023-04-07T09:05:04;14.70;97.00
22430;DHT22;11382;48.086;11.632;2023-04-07T09:07:34;14.10;97.20
22430;DHT22;11382;48.086;11.632;2023-04-07T09:10:03;13.80;97.60
22430;DHT22;11382;48.086;11.632;2023-04-07T09:12:31;13.90;97.90
22430;DHT22;11382;48.086;11.632;2023-04-07T09:15:00;13.20;98.50
22430;DHT22;11382;48.086;11.632;2023-04-07T09:17:28;13.90;96.90
22430;DHT22;11382;48.086;11.632;2023-04-07T09:19:57;14.80;95.60
22430;DHT22;11382;48.086;11.632;2023-04-07T09:22:38;14.90;95.50
22430;DHT22;11382;48.086;11.632;2023-04-07T09:25:15;14.20;94.90
22430;DHT22;11382;48.086;11.632;2023-04-07T09:27:54;14.60;94.80
22430;DHT22;11382;48.086;11.632;2023-04-07T09:30:22;16.00;94.20
22430;DHT22;11382;48.086;11.632;2023-04-07T09:32:50;17.60;90.60
22430;DHT22;11382;48.086;11.632;2023-04-07T09:35:18;18.60;84.60
22430;DHT22;11382;48.086;11.632;2023-04-07T09:38:03;19.60;78.40
22430;DHT22;11382;48.086;11.632;2023-04-07T09:40:32;20.80;75.80
22430;DHT22;11382;48.086;11.632;2023-04-07T09:43:01;21.50;70.40
22430;DHT22;11382;48.086;11.632;2023-04-07T09:45:31;23.00;65.70
22430;DHT22;11382;48.086;11.632;2023-04-07T09:48:06;22.20;63.20
22430;DHT22;11382;48.086;11.632;2023-04-07T09:50:37;21.60;63.10
22430;DHT22;11382;48.086;11.632;2023-04-07T09:53:07;20.70;62.60
22430;DHT22;11382;48.086;11.632;2023-04-07T09:55:36;21.60;62.70
22430;DHT22;11382;48.086;11.632;2023-04-07T09:58:05;21.60;61.50
22430;DHT22;11382;48.086;11.632;2023-04-07T10:00:34;22.20;60.70
22430;DHT22;11382;48.086;11.632;2023-04-07T10:03:03;23.50;56.70
22430;DHT22;11382;48.086;11.632;2023-04-07T10:05:31;22.40;56.40
22430;DHT22;11382;48.086;11.632;2023-04-07T10:08:01;20.20;60.90
22430;DHT22;11382;48.086;11.632;2023-04-07T10:10:31;20.20;62.10
22430;DHT22;11382;48.086;11.632;2023-04-07T10:12:59;19.80;61.30
22430;DHT22;11382;48.086;11.632;2023-04-07T10:15:29;20.80;61.90
22430;DHT22;11382;48.086;11.632;2023-04-07T10:17:57;19.00;64.70
22430;DHT22;11382;48.086;11.632;2023-04-07T10:20:27;20.00;62.20
22430;DHT22;11382;48.086;11.632;2023-04-07T10:23:01;20.80;60.30
22430;DHT22;11382;48.086;11.632;2023-04-07T10:25:31;23.80;56.20
22430;DHT22;11382;48.086;11.632;2023-04-07T10:28:04;25.90;53.50
22430;DHT22;11382;48.086;11.632;2023-04-07T10:30:35;27.90;51.20
22430;DHT22;11382;48.086;11.632;2023-04-07T10:33:03;24.40;50.90
22430;DHT22;11382;48.086;11.632;2023-04-07T10:36:03;24.20;52.00
22430;DHT22;11382;48.086;11.632;2023-04-07T10:38:31;23.20;52.50
22430;DHT22;11382;48.086;11.632;2023-04-07T10:41:34;25.00;51.70
22430;DHT22;11382;48.086;11.632;2023-04-07T10:44:03;25.50;48.10
22430;DHT22;11382;48.086;11.632;2023-04-07T10:47:02;22.50;52.00
22430;DHT22;11382;48.086;11.632;2023-04-07T10:49:31;26.40;49.90
22430;DHT22;11382;48.086;11.632;2023-04-07T10:52:22;27.80;46.80
22430;DHT22;11382;48.086;11.632;2023-04-07T10:58:17;24.90;47.30
22430;DHT22;11382;48.086;11.632;2023-04-07T11:01:16;21.20;52.90
22430;DHT22;11382;48.086;11.632;2023-04-07T11:03:57;19.90;56.70
22430;DHT22;11382;48.086;11.632;2023-04-07T11:06:27;20.00;57.70
22430;DHT22;11382;48.086;11.632;2023-04-07T11:08:55;18.20;59.30
22430;DHT22;11382;48.086;11.632;2023-04-07T11:11:37;16.70;62.80
22430;DHT22;11382;48.086;11.632;2023-04-07T11:14:07;16.00;66.70
22430;DHT22;11382;48.086;11.632;2023-04-07T11:16:40;16.10;66.00
22430;DHT22;11382;48.086;11.632;2023-04-07T11:19:09;15.70;67.20
22430;DHT22;11382;48.086;11.632;2023-04-07T11:21:37;15.70;68.80
22430;DHT22;11382;48.086;11.632;2023-04-07T11:24:05;15.40;68.90
22430;DHT22;11382;48.086;11.632;2023-04-07T11:26:37;16.80;66.90
22430;DHT22;11382;48.086;11.632;2023-04-07T11:29:08;18.30;64.20
22430;DHT22;11382;48.086;11.632;2023-04-07T11:31:37;19.70;62.30
22430;DHT22;11382;48.086;11.632;2023-04-07T11:34:06;19.90;60.00
22430;DHT22;11382;48.086;11.632;2023-04-07T11:36:39;19.10;60.90
22430;DHT22;11382;48.086;11.632;2023-04-07T11:39:18;17.90;63.00
22430;DHT22;11382;48.086;11.632;2023-04-07T11:41:47;16.90;64.60
22430;DHT22;11382;48.086;11.632;2023-04-07T11:44:17;16.60;65.30
22430;DHT22;11382;48.086;11.632;2023-04-07T11:46:52;16.50;65.90
22430;DHT22;11382;48.086;11.632;2023-04-07T11:49:21;16.80;66.90
22430;DHT22;11382;48.086;11.632;2023-04-07T11:51:57;16.70;66.50
22430;DHT22;11382;48.086;11.632;2023-04-07T11:54:25;16.00;67.10
22430;DHT22;11382;48.086;11.632;2023-04-07T11:56:53;16.90;67.70
22430;DHT22;11382;48.086;11.632;2023-04-07T11:59:24;16.40;67.50
22430;DHT22;11382;48.086;11.632;2023-04-07T12:01:54;15.60;69.80
22430;DHT22;11382;48.086;11.632;2023-04-07T12:04:23;15.30;70.70
22430;DHT22;11382;48.086;11.632;2023-04-07T12:06:52;16.20;72.80
22430;DHT22;11382;48.086;11.632;2023-04-07T12:09:28;17.60;72.50
22430;DHT22;11382;48.086;11.632;2023-04-07T12:11:57;18.00;67.80
22430;DHT22;11382;48.086;11.632;2023-04-07T12:14:26;17.90;66.90
22430;DHT22;11382;48.086;11.632;2023-04-07T12:16:55;17.90;66.20
22430;DHT22;11382;48.086;11.632;2023-04-07T12:19:25;17.40;65.70
22430;DHT22;11382;48.086;11.632;2023-04-07T12:21:53;17.70;66.60
22430;DHT22;11382;48.086;11.632;2023-04-07T12:24:21;18.20;66.80
22430;DHT22;11382;48.086;11.632;2023-04-07T12:26:49;17.30;65.50
22430;DHT22;11382;48.086;11.632;2023-04-07T12:29:17;17.50;66.30
22430;DHT22;11382;48.086;11.632;2023-04-07T12:31:47;17.00;66.00
22430;DHT22;11382;48.086;11.632;2023-04-07T12:34:17;17.20;65.30
22430;DHT22;11382;48.086;11.632;2023-04-07T12:36:45;17.30;65.80
22430;DHT22;11382;48.086;11.632;2023-04-07T12:39:14;17.90;65.70
22430;DHT22;11382;48.086;11.632;2023-04-07T12:41:42;18.30;66.90
22430;DHT22;11382;48.086;11.632;2023-04-07T12:44:11;18.10;65.50
22430;DHT22;11382;48.086;11.632;2023-04-07T12:46:39;18.10;65.90
22430;DHT22;11382;48.086;11.632;2023-04-07T12:49:10;18.00;66.10
22430;DHT22;11382;48.086;11.632;2023-04-07T12:51:38;17.40;66.10
22430;DHT22;11382;48.086;11.632;2023-04-07T12:54:06;17.00;69.20
22430;DHT22;11382;48.086;11.632;2023-04-07T12:56:34;16.40;70.10
22430;DHT22;11382;48.086;11.632;2023-04-07T12:59:02;16.40;70.70
22430;DHT22;11382;48.086;11.632;2023-04-07T13:01:32;16.20;72.30
22430;DHT22;11382;48.086;11.632;2023-04-07T13:04:01;16.00;72.70
22430;DHT22;11382;48.086;11.632;2023-04-07T13:06:31;16.00;73.50
22430;DHT22;11382;48.086;11.632;2023-04-07T13:09:02;15.60;72.00
22430;DHT22;11382;48.086;11.632;2023-04-07T13:11:30;15.40;72.20
22430;DHT22;11382;48.086;11.632;2023-04-07T13:13:58;15.20;73.60
22430;DHT22;11382;48.086;11.632;2023-04-07T13:16:27;15.00;74.80
22430;DHT22;11382;48.086;11.632;2023-04-07T13:18:55;14.40;75.00
22430;DHT22;11382;48.086;11.632;2023-04-07T13:21:23;14.30;75.30
22430;DHT22;11382;48.086;11.632;2023-04-07T13:23:56;14.10;75.70
22430;DHT22;11382;48.086;11.632;2023-04-07T13:26:24;14.30;76.30
22430;DHT22;11382;48.086;11.632;2023-04-07T13:28:52;14.30;76.70
22430;DHT22;11382;48.086;11.632;2023-04-07T13:31:20;14.30;77.80
22430;DHT22;11382;48.086;11.632;2023-04-07T13:33:49;14.20;79.20
22430;DHT22;11382;48.086;11.632;2023-04-07T13:36:17;13.80;79.80
22430;DHT22;11382;48.086;11.632;2023-04-07T13:38:48;13.80;79.80
22430;DHT22;11382;48.086;11.632;2023-04-07T13:41:18;13.80;79.70
22430;DHT22;11382;48.086;11.632;2023-04-07T13:43:47;13.80;79.30
22430;DHT22;11382;48.086;11.632;2023-04-07T13:46:15;13.80;79.50
22430;DHT22;11382;48.086;11.632;2023-04-07T13:48:54;13.50;80.60
22430;DHT22;11382;48.086;11.632;2023-04-07T13:51:22;13.70;81.60
22430;DHT22;11382;48.086;11.632;2023-04-07T13:53:50;14.00;81.00
22430;DHT22;11382;48.086;11.632;2023-04-07T13:56:22;14.10;81.20
22430;DHT22;11382;48.086;11.632;2023-04-07T13:58:50;14.30;80.60
22430;DHT22;11382;48.086;11.632;2023-04-07T14:01:18;14.30;81.10
22430;DHT22;11382;48.086;11.632;2023-04-07T14:03:46;14.10;80.40
22430;DHT22;11382;48.086;11.632;2023-04-07T14:06:15;14.20;81.50
22430;DHT22;11382;48.086;11.632;2023-04-07T14:08:43;14.20;81.80
22430;DHT22;11382;48.086;11.632;2023-04-07T14:11:11;14.40;82.40
22430;DHT22;11382;48.086;11.632;2023-04-07T14:13:44;14.30;80.90
22430;DHT22;11382;48.086;11.632;2023-04-07T14:16:12;14.00;81.40
22430;DHT22;11382;48.086;11.632;2023-04-07T14:18:41;13.90;82.00
22430;DHT22;11382;48.086;11.632;2023-04-07T14:21:09;13.60;82.60
22430;DHT22;11382;48.086;11.632;2023-04-07T14:23:37;13.80;82.20
22430;DHT22;11382;48.086;11.632;2023-04-07T14:26:08;13.90;82.60
22430;DHT22;11382;48.086;11.632;2023-04-07T14:28:36;13.90;81.30
22430;DHT22;11382;48.086;11.632;2023-04-07T14:31:09;14.20;81.00
22430;DHT22;11382;48.086;11.632;2023-04-07T14:33:38;13.90;80.90
22430;DHT22;11382;48.086;11.632;2023-04-07T14:36:07;13.90;80.90
22430;DHT22;11382;48.086;11.632;2023-04-07T14:38:35;14.10;81.10
22430;DHT22;11382;48.086;11.632;2023-04-07T14:41:03;13.70;81.30
22430;DHT22;11382;48.086;11.632;2023-04-07T14:43:36;13.90;81.40
22430;DHT22;11382;48.086;11.632;2023-04-07T14:46:06;14.00;82.90
22430;DHT22;11382;48.086;11.632;2023-04-07T14:48:34;14.30;83.10
22430;DHT22;11382;48.086;11.632;2023-04-07T14:51:02;14.30;80.90
22430;DHT22;11382;48.086;11.632;2023-04-07T14:53:35;14.60;80.10
22430;DHT22;11382;48.086;11.632;2023-04-07T14:56:03;14.20;80.20
22430;DHT22;11382;48.086;11.632;2023-04-07T14:58:32;14.20;81.70
22430;DHT22;11382;48.086;11.632;2023-04-07T15:01:02;14.00;81.30
22430;DHT22;11382;48.086;11.632;2023-04-07T15:03:33;13.70;82.10
22430;DHT22;11382;48.086;11.632;2023-04-07T15:06:05;13.10;83.30
22430;DHT22;11382;48.086;11.632;2023-04-07T15:08:34;12.90;83.80
22430;DHT22;11382;48.086;11.632;2023-04-07T15:11:03;12.90;84.80
22430;DHT22;11382;48.086;11.632;2023-04-07T15:13:33;13.00;85.90
22430;DHT22;11382;48.086;11.632;2023-04-07T15:16:07;12.40;86.70
22430;DHT22;11382;48.086;11.632;2023-04-07T15:18:39;12.60;87.40
22430;DHT22;11382;48.086;11.632;2023-04-07T15:21:07;12.60;85.50
22430;DHT22;11382;48.086;11.632;2023-04-07T15:23:37;12.50;85.80
22430;DHT22;11382;48.086;11.632;2023-04-07T15:26:06;12.40;86.10
22430;DHT22;11382;48.086;11.632;2023-04-07T15:28:37;12.50;87.10
22430;DHT22;11382;48.086;11.632;2023-04-07T15:31:05;12.50;87.20
22430;DHT22;11382;48.086;11.632;2023-04-07T15:33:36;12.50;87.70
22430;DHT22;11382;48.086;11.632;2023-04-07T15:36:05;12.50;87.70
22430;DHT22;11382;48.086;11.632;2023-04-07T15:38:34;12.20;87.60
22430;DHT22;11382;48.086;11.632;2023-04-07T15:41:04;11.70;89.90
22430;DHT22;11382;48.086;11.632;2023-04-07T15:43:32;11.60;90.50
22430;DHT22;11382;48.086;11.632;2023-04-07T15:46:01;11.80;90.90
22430;DHT22;11382;48.086;11.632;2023-04-07T15:48:29;11.60;90.90